sensor_id;sensor_type;location;lat;lon;timestamp;P1;durP1;ratioP1;P2;durP2;ratioP2
32501;SDS011;18952;52.516;13.460;2022-12-07T00:01:06;27.77;;;20.58;;
32501;SDS011;18952;52.516;13.460;2022-12-07T00:03:37;29.25;;;21.10;;
32501;SDS011;18952;52.516;13.460;2022-12-07T00:06:05;28.20;;;21.20;;
32501;SDS011;18952;52.516;13.460;2022-12-07T00:08:34;29.00;;;21.13;;
32501;SDS011;18952;52.516;13.460;2022-12-07T00:11:05;28.55;;;20.80;;
32501;SDS011;18952;52.516;13.460;2022-12-07T00:13:36;26.20;;;19.73;;
32501;SDS011;18952;52.516;13.460;2022-12-07T00:16:08;26.83;;;19.27;;
32501;SDS011;18952;52.516;13.460;2022-12-07T00:18:40;24.55;;;20.00;;
32501;SDS011;18952;52.516;13.460;2022-12-07T00:23:42;23.90;;;18.88;;
32501;SDS011;18952;52.516;13.460;2022-12-07T00:26:11;22.85;;;18.50;;
32501;SDS011;18952;52.516;13.460;2022-12-07T00:28:39;22.55;;;18.17;;
32501;SDS011;18952;52.516;13.460;2022-12-07T00:31:08;17.80;;;15.25;;
32501;SDS011;18952;52.516;13.460;2022-12-07T00:33:37;20.40;;;15.95;;
32501;SDS011;18952;52.516;13.460;2022-12-07T00:36:08;22.67;;;17.55;;
32501;SDS011;18952;52.516;13.460;2022-12-07T00:38:37;18.20;;;16.15;;
32501;SDS011;18952;52.516;13.460;2022-12-07T00:41:11;18.45;;;16.02;;
32501;SDS011;18952;52.516;13.460;2022-12-07T00:43:40;20.90;;;16.58;;
32501;SDS011;18952;52.516;13.460;2022-12-07T00:46:09;19.23;;;15.80;;
32501;SDS011;18952;52.516;13.460;2022-12-07T00:48:37;19.48;;;16.08;;
32501;SDS011;18952;52.516;13.460;2022-12-07T00:51:04;19.75;;;17.02;;
32501;SDS011;18952;52.516;13.460;2022-12-07T00:53:34;18.90;;;16.00;;
32501;SDS011;18952;52.516;13.460;2022-12-07T00:56:07;18.90;;;15.57;;
32501;SDS011;18952;52.516;13.460;2022-12-07T00:58:35;17.42;;;15.55;;
32501;SDS011;18952;52.516;13.460;2022-12-07T01:01:02;17.17;;;15.38;;
32501;SDS011;18952;52.516;13.460;2022-12-07T01:03:30;16.15;;;14.45;;
32501;SDS011;18952;52.516;13.460;2022-12-07T01:05:57;18.17;;;15.95;;
32501;SDS011;18952;52.516;13.460;2022-12-07T01:08:25;18.23;;;15.98;;
32501;SDS011;18952;52.516;13.460;2022-12-07T01:11:00;19.35;;;16.80;;
32501;SDS011;18952;52.516;13.460;2022-12-07T01:13:32;18.75;;;16.75;;
32501;SDS011;18952;52.516;13.460;2022-12-07T01:16:01;17.77;;;14.88;;
32501;SDS011;18952;52.516;13.460;2022-12-07T01:18:29;17.85;;;15.65;;
32501;SDS011;18952;52.516;13.460;2022-12-07T01:21:01;18.08;;;16.10;;
32501;SDS011;18952;52.516;13.460;2022-12-07T01:23:42;19.15;;;15.65;;
32501;SDS011;18952;52.516;13.460;2022-12-07T01:26:11;17.70;;;15.80;;
32501;SDS011;18952;52.516;13.460;2022-12-07T01:28:39;18.90;;;16.92;;
32501;SDS011;18952;52.516;13.460;2022-12-07T01:31:07;17.52;;;15.60;;
32501;SDS011;18952;52.516;13.460;2022-12-07T01:33:38;19.27;;;15.75;;
32501;SDS011;18952;52.516;13.460;2022-12-07T01:36:07;17.15;;;14.45;;
32501;SDS011;18952;52.516;13.460;2022-12-07T01:38:38;17.92;;;14.73;;
32501;SDS011;18952;52.516;13.460;2022-12-07T01:41:05;17.95;;;14.82;;
32501;SDS011;18952;52.516;13.460;2022-12-07T01:43:33;17.63;;;15.60;;
32501;SDS011;18952;52.516;13.460;2022-12-07T01:46:00;18.55;;;15.60;;
32501;SDS011;18952;52.516;13.460;2022-12-07T01:48:30;14.50;;;13.10;;
32501;SDS011;18952;52.516;13.460;2022-12-07T01:51:02;16.08;;;11.85;;
32501;SDS011;18952;52.516;13.460;2022-12-07T01:53:34;16.05;;;12.70;;
32501;SDS011;18952;52.516;13.460;2022-12-07T01:56:04;11.75;;;10.45;;
32501;SDS011;18952;52.516;13.460;2022-12-07T01:58:34;12.15;;;10.05;;
32501;SDS011;18952;52.516;13.460;2022-12-07T02:01:01;13.52;;;10.98;;
32501;SDS011;18952;52.516;13.460;2022-12-07T02:03:36;14.70;;;10.90;;
32501;SDS011;18952;52.516;13.460;2022-12-07T02:06:06;11.30;;;10.10;;
32501;SDS011;18952;52.516;13.460;2022-12-07T02:08:34;12.02;;;10.65;;
32501;SDS011;18952;52.516;13.460;2022-12-07T02:11:01;10.48;;;9.23;;
32501;SDS011;18952;52.516;13.460;2022-12-07T02:13:31;10.98;;;9.80;;
32501;SDS011;18952;52.516;13.460;2022-12-07T02:16:03;11.15;;;9.88;;
32501;SDS011;18952;52.516;13.460;2022-12-07T02:21:47;11.30;;;10.10;;
32501;SDS011;18952;52.516;13.460;2022-12-07T02:29:48;10.02;;;8.95;;
32501;SDS011;18952;52.516;13.460;2022-12-07T02:32:27;10.23;;;9.18;;
32501;SDS011;18952;52.516;13.460;2022-12-07T02:38:00;11.48;;;10.07;;
32501;SDS011;18952;52.516;13.460;2022-12-07T02:40:41;12.75;;;9.85;;
32501;SDS011;18952;52.516;13.460;2022-12-07T02:43:26;11.40;;;10.07;;
32501;SDS011;18952;52.516;13.460;2022-12-07T02:45:56;13.98;;;12.48;;
32501;SDS011;18952;52.516;13.460;2022-12-07T02:48:27;14.68;;;11.15;;
32501;SDS011;18952;52.516;13.460;2022-12-07T02:50:54;13.70;;;11.32;;
32501;SDS011;18952;52.516;13.460;2022-12-07T02:56:01;15.48;;;12.68;;
32501;SDS011;18952;52.516;13.460;2022-12-07T03:03:58;17.23;;;14.10;;
32501;SDS011;18952;52.516;13.460;2022-12-07T03:06:49;16.90;;;12.88;;
32501;SDS011;18952;52.516;13.460;2022-12-07T03:09:45;15.50;;;12.90;;
32501;SDS011;18952;52.516;13.460;2022-12-07T03:12:35;15.63;;;13.70;;
32501;SDS011;18952;52.516;13.460;2022-12-07T03:15:12;16.10;;;13.32;;
32501;SDS011;18952;52.516;13.460;2022-12-07T03:17:44;17.30;;;13.30;;
32501;SDS011;18952;52.516;13.460;2022-12-07T03:20:14;18.27;;;13.57;;
32501;SDS011;18952;52.516;13.460;2022-12-07T03:22:45;19.27;;;13.77;;
32501;SDS011;18952;52.516;13.460;2022-12-07T03:25:13;16.45;;;14.60;;
32501;SDS011;18952;52.516;13.460;2022-12-07T03:27:44;16.77;;;14.63;;
32501;SDS011;18952;52.516;13.460;2022-12-07T03:30:20;17.92;;;15.38;;
32501;SDS011;18952;52.516;13.460;2022-12-07T03:32:50;18.23;;;16.15;;
32501;SDS011;18952;52.516;13.460;2022-12-07T03:35:36;17.90;;;15.73;;
32501;SDS011;18952;52.516;13.460;2022-12-07T03:38:13;20.33;;;16.88;;
32501;SDS011;18952;52.516;13.460;2022-12-07T03:41:01;21.02;;;16.35;;
32501;SDS011;18952;52.516;13.460;2022-12-07T03:43:37;22.23;;;18.08;;
32501;SDS011;18952;52.516;13.460;2022-12-07T03:54:19;20.02;;;16.10;;
32501;SDS011;18952;52.516;13.460;2022-12-07T03:57:11;18.10;;;15.85;;
32501;SDS011;18952;52.516;13.460;2022-12-07T03:59:39;20.98;;;16.35;;
32501;SDS011;18952;52.516;13.460;2022-12-07T04:02:07;21.67;;;16.83;;
32501;SDS011;18952;52.516;13.460;2022-12-07T04:04:37;22.83;;;17.90;;
32501;SDS011;18952;52.516;13.460;2022-12-07T04:07:03;22.83;;;19.27;;
32501;SDS011;18952;52.516;13.460;2022-12-07T04:09:30;22.63;;;18.52;;
32501;SDS011;18952;52.516;13.460;2022-12-07T04:11:57;24.73;;;19.30;;
32501;SDS011;18952;52.516;13.460;2022-12-07T04:14:24;28.88;;;21.65;;
32501;SDS011;18952;52.516;13.460;2022-12-07T04:16:52;27.90;;;21.10;;
32501;SDS011;18952;52.516;13.460;2022-12-07T04:19:20;27.75;;;20.77;;
32501;SDS011;18952;52.516;13.460;2022-12-07T04:21:49;31.88;;;21.48;;
32501;SDS011;18952;52.516;13.460;2022-12-07T04:24:16;35.95;;;23.45;;
32501;SDS011;18952;52.516;13.460;2022-12-07T04:26:43;28.30;;;22.30;;
32501;SDS011;18952;52.516;13.460;2022-12-07T04:29:10;30.95;;;22.70;;
32501;SDS011;18952;52.516;13.460;2022-12-07T04:31:38;35.70;;;25.25;;
32501;SDS011;18952;52.516;13.460;2022-12-07T04:34:05;33.13;;;25.90;;
32501;SDS011;18952;52.516;13.460;2022-12-07T04:36:33;33.33;;;25.98;;
32501;SDS011;18952;52.516;13.460;2022-12-07T04:39:00;37.65;;;26.83;;
32501;SDS011;18952;52.516;13.460;2022-12-07T04:41:27;38.15;;;28.63;;
32501;SDS011;18952;52.516;13.460;2022-12-07T04:43:57;40.17;;;28.42;;
32501;SDS011;18952;52.516;13.460;2022-12-07T04:46:26;39.78;;;30.50;;
32501;SDS011;18952;52.516;13.460;2022-12-07T04:48:54;41.20;;;31.42;;
32501;SDS011;18952;52.516;13.460;2022-12-07T04:51:22;42.50;;;30.73;;
32501;SDS011;18952;52.516;13.460;2022-12-07T04:53:50;48.92;;;33.05;;
32501;SDS011;18952;52.516;13.460;2022-12-07T04:56:17;47.15;;;32.20;;
32501;SDS011;18952;52.516;13.460;2022-12-07T04:58:45;47.05;;;33.40;;
32501;SDS011;18952;52.516;13.460;2022-12-07T05:01:13;56.05;;;35.90;;
32501;SDS011;18952;52.516;13.460;2022-12-07T05:03:42;49.53;;;35.58;;
32501;SDS011;18952;52.516;13.460;2022-12-07T05:06:09;51.00;;;35.38;;
32501;SDS011;18952;52.516;13.460;2022-12-07T05:08:39;50.55;;;36.85;;
32501;SDS011;18952;52.516;13.460;2022-12-07T05:11:06;57.20;;;38.70;;
32501;SDS011;18952;52.516;13.460;2022-12-07T05:13:34;51.10;;;36.75;;
32501;SDS011;18952;52.516;13.460;2022-12-07T05:16:02;52.65;;;37.40;;
32501;SDS011;18952;52.516;13.460;2022-12-07T05:18:29;57.08;;;39.28;;
32501;SDS011;18952;52.516;13.460;2022-12-07T05:20:56;62.35;;;41.33;;
32501;SDS011;18952;52.516;13.460;2022-12-07T05:23:22;58.33;;;39.40;;
32501;SDS011;18952;52.516;13.460;2022-12-07T05:25:49;54.72;;;38.95;;
32501;SDS011;18952;52.516;13.460;2022-12-07T05:28:16;58.63;;;40.58;;
32501;SDS011;18952;52.516;13.460;2022-12-07T05:30:43;57.17;;;39.80;;
32501;SDS011;18952;52.516;13.460;2022-12-07T05:33:09;59.97;;;39.40;;
32501;SDS011;18952;52.516;13.460;2022-12-07T05:35:36;54.97;;;38.67;;
32501;SDS011;18952;52.516;13.460;2022-12-07T05:38:03;69.07;;;42.40;;
32501;SDS011;18952;52.516;13.460;2022-12-07T05:40:29;63.55;;;41.38;;
32501;SDS011;18952;52.516;13.460;2022-12-07T05:42:56;61.28;;;40.95;;
32501;SDS011;18952;52.516;13.460;2022-12-07T05:45:29;63.72;;;41.97;;
32501;SDS011;18952;52.516;13.460;2022-12-07T05:47:56;65.40;;;42.17;;
32501;SDS011;18952;52.516;13.460;2022-12-07T05:50:23;67.18;;;43.00;;
32501;SDS011;18952;52.516;13.460;2022-12-07T05:52:49;72.32;;;44.97;;
32501;SDS011;18952;52.516;13.460;2022-12-07T05:55:16;69.68;;;43.80;;
32501;SDS011;18952;52.516;13.460;2022-12-07T05:57:43;62.40;;;44.15;;
32501;SDS011;18952;52.516;13.460;2022-12-07T06:00:11;66.78;;;44.35;;
32501;SDS011;18952;52.516;13.460;2022-12-07T06:02:38;69.38;;;43.90;;
32501;SDS011;18952;52.516;13.460;2022-12-07T06:05:05;67.25;;;44.65;;
32501;SDS011;18952;52.516;13.460;2022-12-07T06:07:32;73.80;;;44.22;;
32501;SDS011;18952;52.516;13.460;2022-12-07T06:09:59;67.25;;;43.92;;
32501;SDS011;18952;52.516;13.460;2022-12-07T06:12:26;68.85;;;43.58;;
32501;SDS011;18952;52.516;13.460;2022-12-07T06:14:53;61.90;;;42.53;;
32501;SDS011;18952;52.516;13.460;2022-12-07T06:17:20;78.20;;;44.55;;
32501;SDS011;18952;52.516;13.460;2022-12-07T06:19:46;66.03;;;43.75;;
32501;SDS011;18952;52.516;13.460;2022-12-07T06:22:13;75.00;;;46.83;;
32501;SDS011;18952;52.516;13.460;2022-12-07T06:24:40;76.03;;;45.42;;
32501;SDS011;18952;52.516;13.460;2022-12-07T06:27:07;72.90;;;44.70;;
32501;SDS011;18952;52.516;13.460;2022-12-07T06:29:34;81.53;;;47.00;;
32501;SDS011;18952;52.516;13.460;2022-12-07T06:32:01;76.93;;;46.65;;
32501;SDS011;18952;52.516;13.460;2022-12-07T06:34:28;71.90;;;45.40;;
32501;SDS011;18952;52.516;13.460;2022-12-07T06:36:55;75.55;;;45.30;;
32501;SDS011;18952;52.516;13.460;2022-12-07T06:39:23;67.15;;;44.10;;
32501;SDS011;18952;52.516;13.460;2022-12-07T06:41:51;65.03;;;40.55;;
32501;SDS011;18952;52.516;13.460;2022-12-07T06:44:18;65.07;;;42.00;;
32501;SDS011;18952;52.516;13.460;2022-12-07T06:46:45;68.95;;;42.85;;
32501;SDS011;18952;52.516;13.460;2022-12-07T06:49:12;64.22;;;41.03;;
32501;SDS011;18952;52.516;13.460;2022-12-07T06:51:39;67.68;;;40.88;;
32501;SDS011;18952;52.516;13.460;2022-12-07T06:54:05;66.45;;;42.17;;
32501;SDS011;18952;52.516;13.460;2022-12-07T06:56:33;65.90;;;41.58;;
32501;SDS011;18952;52.516;13.460;2022-12-07T06:59:03;63.90;;;42.65;;
32501;SDS011;18952;52.516;13.460;2022-12-07T07:01:30;58.78;;;41.25;;
32501;SDS011;18952;52.516;13.460;2022-12-07T07:03:57;61.28;;;40.40;;
32501;SDS011;18952;52.516;13.460;2022-12-07T07:06:24;64.45;;;42.42;;
32501;SDS011;18952;52.516;13.460;2022-12-07T07:08:51;60.38;;;40.78;;
32501;SDS011;18952;52.516;13.460;2022-12-07T07:11:18;62.22;;;43.03;;
32501;SDS011;18952;52.516;13.460;2022-12-07T07:13:45;62.17;;;40.72;;
32501;SDS011;18952;52.516;13.460;2022-12-07T07:16:12;60.05;;;40.78;;
32501;SDS011;18952;52.516;13.460;2022-12-07T07:18:39;61.90;;;40.78;;
32501;SDS011;18952;52.516;13.460;2022-12-07T07:21:06;68.38;;;42.92;;
32501;SDS011;18952;52.516;13.460;2022-12-07T07:23:32;58.42;;;40.45;;
32501;SDS011;18952;52.516;13.460;2022-12-07T07:25:59;57.53;;;39.40;;
32501;SDS011;18952;52.516;13.460;2022-12-07T07:28:26;57.15;;;39.15;;
32501;SDS011;18952;52.516;13.460;2022-12-07T07:30:53;55.78;;;38.47;;
32501;SDS011;18952;52.516;13.460;2022-12-07T07:33:20;50.13;;;35.05;;
32501;SDS011;18952;52.516;13.460;2022-12-07T07:35:46;49.85;;;36.53;;
32501;SDS011;18952;52.516;13.460;2022-12-07T07:38:13;45.58;;;34.00;;
32501;SDS011;18952;52.516;13.460;2022-12-07T07:40:40;42.92;;;31.42;;
32501;SDS011;18952;52.516;13.460;2022-12-07T07:43:06;43.28;;;29.95;;
32501;SDS011;18952;52.516;13.460;2022-12-07T07:45:33;42.10;;;29.05;;
32501;SDS011;18952;52.516;13.460;2022-12-07T07:48:00;40.45;;;29.98;;
32501;SDS011;18952;52.516;13.460;2022-12-07T07:50:26;44.00;;;30.73;;
32501;SDS011;18952;52.516;13.460;2022-12-07T07:52:53;40.05;;;28.50;;
32501;SDS011;18952;52.516;13.460;2022-12-07T07:55:20;37.72;;;27.20;;
32501;SDS011;18952;52.516;13.460;2022-12-07T07:57:47;35.40;;;26.05;;
32501;SDS011;18952;52.516;13.460;2022-12-07T08:00:20;41.22;;;25.30;;
32501;SDS011;18952;52.516;13.460;2022-12-07T08:02:47;35.00;;;22.98;;
32501;SDS011;18952;52.516;13.460;2022-12-07T08:05:14;31.98;;;23.20;;
32501;SDS011;18952;52.516;13.460;2022-12-07T08:07:41;32.63;;;22.00;;
32501;SDS011;18952;52.516;13.460;2022-12-07T08:10:09;28.60;;;21.13;;
32501;SDS011;18952;52.516;13.460;2022-12-07T08:12:38;32.53;;;21.92;;
32501;SDS011;18952;52.516;13.460;2022-12-07T08:15:06;28.88;;;20.27;;
32501;SDS011;18952;52.516;13.460;2022-12-07T08:17:33;26.55;;;18.67;;
32501;SDS011;18952;52.516;13.460;2022-12-07T08:19:59;30.27;;;19.83;;
32501;SDS011;18952;52.516;13.460;2022-12-07T08:22:27;27.05;;;18.13;;
32501;SDS011;18952;52.516;13.460;2022-12-07T08:24:53;23.35;;;14.60;;
32501;SDS011;18952;52.516;13.460;2022-12-07T08:27:20;22.55;;;15.98;;
32501;SDS011;18952;52.516;13.460;2022-12-07T08:29:47;22.35;;;14.70;;
32501;SDS011;18952;52.516;13.460;2022-12-07T08:32:13;20.25;;;14.20;;
32501;SDS011;18952;52.516;13.460;2022-12-07T08:34:40;21.38;;;14.82;;
32501;SDS011;18952;52.516;13.460;2022-12-07T08:37:07;20.80;;;14.32;;
32501;SDS011;18952;52.516;13.460;2022-12-07T08:39:34;21.10;;;13.70;;
32501;SDS011;18952;52.516;13.460;2022-12-07T08:42:00;18.67;;;12.88;;
32501;SDS011;18952;52.516;13.460;2022-12-07T08:44:27;16.58;;;10.57;;
32501;SDS011;18952;52.516;13.460;2022-12-07T08:46:56;15.68;;;10.05;;
32501;SDS011;18952;52.516;13.460;2022-12-07T08:49:36;16.63;;;9.10;;
32501;SDS011;18952;52.516;13.460;2022-12-07T08:52:08;9.65;;;7.78;;
32501;SDS011;18952;52.516;13.460;2022-12-07T08:54:35;10.05;;;7.78;;
32501;SDS011;18952;52.516;13.460;2022-12-07T08:57:05;10.05;;;5.90;;
32501;SDS011;18952;52.516;13.460;2022-12-07T08:59:33;10.20;;;6.32;;
32501;SDS011;18952;52.516;13.460;2022-12-07T09:02:01;11.30;;;6.15;;
32501;SDS011;18952;52.516;13.460;2022-12-07T09:04:28;9.10;;;5.38;;
32501;SDS011;18952;52.516;13.460;2022-12-07T09:06:55;7.43;;;4.53;;
32501;SDS011;18952;52.516;13.460;2022-12-07T09:09:30;8.38;;;5.00;;
32501;SDS011;18952;52.516;13.460;2022-12-07T09:12:11;4.53;;;3.47;;
32501;SDS011;18952;52.516;13.460;2022-12-07T09:14:51;6.68;;;4.07;;
32501;SDS011;18952;52.516;13.460;2022-12-07T09:17:17;9.38;;;4.32;;
32501;SDS011;18952;52.516;13.460;2022-12-07T09:19:44;5.53;;;3.55;;
32501;SDS011;18952;52.516;13.460;2022-12-07T09:22:11;5.18;;;3.70;;
32501;SDS011;18952;52.516;13.460;2022-12-07T09:24:38;5.90;;;3.70;;
32501;SDS011;18952;52.516;13.460;2022-12-07T09:27:04;9.57;;;3.70;;
32501;SDS011;18952;52.516;13.460;2022-12-07T09:29:31;4.25;;;2.88;;
32501;SDS011;18952;52.516;13.460;2022-12-07T09:31:58;4.70;;;2.65;;
32501;SDS011;18952;52.516;13.460;2022-12-07T09:34:25;6.10;;;2.65;;
32501;SDS011;18952;52.516;13.460;2022-12-07T09:36:52;2.70;;;2.30;;
32501;SDS011;18952;52.516;13.460;2022-12-07T09:39:18;2.78;;;2.42;;
32501;SDS011;18952;52.516;13.460;2022-12-07T09:41:45;4.63;;;3.10;;
32501;SDS011;18952;52.516;13.460;2022-12-07T09:44:18;3.22;;;2.80;;
32501;SDS011;18952;52.516;13.460;2022-12-07T09:46:49;4.53;;;3.40;;
32501;SDS011;18952;52.516;13.460;2022-12-07T09:49:17;4.00;;;3.20;;
32501;SDS011;18952;52.516;13.460;2022-12-07T09:54:46;4.65;;;3.30;;
32501;SDS011;18952;52.516;13.460;2022-12-07T09:57:15;4.15;;;3.30;;
32501;SDS011;18952;52.516;13.460;2022-12-07T09:59:42;5.32;;;3.53;;
32501;SDS011;18952;52.516;13.460;2022-12-07T10:04:58;6.63;;;3.10;;
32501;SDS011;18952;52.516;13.460;2022-12-07T10:07:26;4.35;;;2.60;;
32501;SDS011;18952;52.516;13.460;2022-12-07T10:09:52;3.67;;;2.60;;
32501;SDS011;18952;52.516;13.460;2022-12-07T10:12:19;2.80;;;2.42;;
32501;SDS011;18952;52.516;13.460;2022-12-07T10:14:53;4.93;;;2.63;;
32501;SDS011;18952;52.516;13.460;2022-12-07T10:17:37;4.00;;;2.90;;
32501;SDS011;18952;52.516;13.460;2022-12-07T10:20:08;3.88;;;2.95;;
32501;SDS011;18952;52.516;13.460;2022-12-07T10:22:57;3.88;;;3.00;;
32501;SDS011;18952;52.516;13.460;2022-12-07T10:25:36;5.38;;;3.13;;
32501;SDS011;18952;52.516;13.460;2022-12-07T10:30:57;4.90;;;2.80;;
32501;SDS011;18952;52.516;13.460;2022-12-07T10:36:18;4.47;;;2.70;;
32501;SDS011;18952;52.516;13.460;2022-12-07T10:39:02;3.67;;;2.75;;
32501;SDS011;18952;52.516;13.460;2022-12-07T10:41:50;5.65;;;2.95;;
32501;SDS011;18952;52.516;13.460;2022-12-07T10:44:24;6.88;;;3.13;;
32501;SDS011;18952;52.516;13.460;2022-12-07T10:54:53;7.47;;;3.85;;
32501;SDS011;18952;52.516;13.460;2022-12-07T11:09:28;7.82;;;4.60;;
32501;SDS011;18952;52.516;13.460;2022-12-07T11:20:37;7.72;;;5.10;;
32501;SDS011;18952;52.516;13.460;2022-12-07T11:34:24;14.57;;;6.13;;
32501;SDS011;18952;52.516;13.460;2022-12-07T11:37:21;8.63;;;5.50;;
32501;SDS011;18952;52.516;13.460;2022-12-07T11:42:57;8.23;;;5.03;;
32501;SDS011;18952;52.516;13.460;2022-12-07T11:45:37;12.15;;;5.63;;
32501;SDS011;18952;52.516;13.460;2022-12-07T11:48:17;11.95;;;5.18;;
32501;SDS011;18952;52.516;13.460;2022-12-07T11:50:54;9.65;;;5.28;;
32501;SDS011;18952;52.516;13.460;2022-12-07T11:53:25;6.75;;;4.80;;
32501;SDS011;18952;52.516;13.460;2022-12-07T11:58:47;13.07;;;5.53;;
32501;SDS011;18952;52.516;13.460;2022-12-07T12:06:54;12.77;;;5.60;;
32501;SDS011;18952;52.516;13.460;2022-12-07T12:09:23;8.48;;;5.43;;
32501;SDS011;18952;52.516;13.460;2022-12-07T12:12:12;10.07;;;4.55;;
32501;SDS011;18952;52.516;13.460;2022-12-07T12:23:15;12.55;;;4.80;;
32501;SDS011;18952;52.516;13.460;2022-12-07T12:25:55;11.68;;;4.95;;
32501;SDS011;18952;52.516;13.460;2022-12-07T12:28:41;11.90;;;5.35;;
32501;SDS011;18952;52.516;13.460;2022-12-07T12:33:50;11.45;;;5.10;;
32501;SDS011;18952;52.516;13.460;2022-12-07T12:44:08;14.10;;;4.25;;
32501;SDS011;18952;52.516;13.460;2022-12-07T12:47:02;10.30;;;4.38;;
32501;SDS011;18952;52.516;13.460;2022-12-07T12:52:50;10.75;;;3.55;;
32501;SDS011;18952;52.516;13.460;2022-12-07T12:55:27;12.17;;;3.23;;
32501;SDS011;18952;52.516;13.460;2022-12-07T13:00:47;12.82;;;3.40;;
32501;SDS011;18952;52.516;13.460;2022-12-07T13:03:32;13.75;;;3.92;;
32501;SDS011;18952;52.516;13.460;2022-12-07T13:08:50;13.13;;;3.22;;
32501;SDS011;18952;52.516;13.460;2022-12-07T13:11:20;9.15;;;3.35;;
32501;SDS011;18952;52.516;13.460;2022-12-07T13:17:03;12.50;;;3.85;;
32501;SDS011;18952;52.516;13.460;2022-12-07T13:25:07;12.18;;;3.97;;
32501;SDS011;18952;52.516;13.460;2022-12-07T13:27:39;10.00;;;3.58;;
32501;SDS011;18952;52.516;13.460;2022-12-07T13:30:17;10.95;;;3.60;;
32501;SDS011;18952;52.516;13.460;2022-12-07T13:32:56;12.85;;;3.47;;
32501;SDS011;18952;52.516;13.460;2022-12-07T13:35:34;12.98;;;3.53;;
32501;SDS011;18952;52.516;13.460;2022-12-07T13:38:02;10.18;;;3.45;;
32501;SDS011;18952;52.516;13.460;2022-12-07T13:40:32;8.95;;;3.05;;
32501;SDS011;18952;52.516;13.460;2022-12-07T13:42:59;9.55;;;3.60;;
32501;SDS011;18952;52.516;13.460;2022-12-07T13:45:29;11.90;;;3.63;;
32501;SDS011;18952;52.516;13.460;2022-12-07T13:47:57;9.27;;;3.53;;
32501;SDS011;18952;52.516;13.460;2022-12-07T13:50:26;11.48;;;3.40;;
32501;SDS011;18952;52.516;13.460;2022-12-07T13:52:58;15.25;;;3.50;;
32501;SDS011;18952;52.516;13.460;2022-12-07T13:55:26;14.65;;;3.60;;
32501;SDS011;18952;52.516;13.460;2022-12-07T13:57:55;6.07;;;2.50;;
32501;SDS011;18952;52.516;13.460;2022-12-07T14:05:43;13.07;;;2.75;;
32501;SDS011;18952;52.516;13.460;2022-12-07T14:13:33;11.35;;;3.08;;
32501;SDS011;18952;52.516;13.460;2022-12-07T14:16:27;13.90;;;3.40;;
32501;SDS011;18952;52.516;13.460;2022-12-07T14:18:56;11.82;;;3.78;;
32501;SDS011;18952;52.516;13.460;2022-12-07T14:21:29;10.70;;;3.00;;
32501;SDS011;18952;52.516;13.460;2022-12-07T14:24:17;10.32;;;2.97;;
32501;SDS011;18952;52.516;13.460;2022-12-07T14:26:46;10.98;;;3.17;;
32501;SDS011;18952;52.516;13.460;2022-12-07T14:31:53;16.48;;;3.38;;
32501;SDS011;18952;52.516;13.460;2022-12-07T14:34:21;11.35;;;3.17;;
32501;SDS011;18952;52.516;13.460;2022-12-07T14:36:49;12.07;;;3.30;;
32501;SDS011;18952;52.516;13.460;2022-12-07T14:39:17;12.60;;;3.13;;
32501;SDS011;18952;52.516;13.460;2022-12-07T14:41:43;7.93;;;3.33;;
32501;SDS011;18952;52.516;13.460;2022-12-07T14:44:11;9.38;;;3.28;;
32501;SDS011;18952;52.516;13.460;2022-12-07T14:46:58;15.80;;;3.22;;
32501;SDS011;18952;52.516;13.460;2022-12-07T14:49:45;16.42;;;3.72;;
32501;SDS011;18952;52.516;13.460;2022-12-07T14:52:22;16.55;;;3.47;;
32501;SDS011;18952;52.516;13.460;2022-12-07T14:57:50;13.20;;;3.13;;
32501;SDS011;18952;52.516;13.460;2022-12-07T15:00:18;10.27;;;4.00;;
32501;SDS011;18952;52.516;13.460;2022-12-07T15:02:46;11.10;;;3.83;;
32501;SDS011;18952;52.516;13.460;2022-12-07T15:05:14;12.23;;;3.33;;
32501;SDS011;18952;52.516;13.460;2022-12-07T15:07:43;19.90;;;3.83;;
32501;SDS011;18952;52.516;13.460;2022-12-07T15:10:21;14.80;;;3.97;;
32501;SDS011;18952;52.516;13.460;2022-12-07T15:12:50;16.65;;;3.55;;
32501;SDS011;18952;52.516;13.460;2022-12-07T15:15:17;9.90;;;3.13;;
32501;SDS011;18952;52.516;13.460;2022-12-07T15:17:43;11.90;;;3.05;;
32501;SDS011;18952;52.516;13.460;2022-12-07T15:20:14;12.85;;;3.17;;
32501;SDS011;18952;52.516;13.460;2022-12-07T15:22:41;12.48;;;2.80;;
32501;SDS011;18952;52.516;13.460;2022-12-07T15:25:08;9.05;;;2.70;;
32501;SDS011;18952;52.516;13.460;2022-12-07T15:27:39;14.30;;;3.45;;
32501;SDS011;18952;52.516;13.460;2022-12-07T15:30:06;11.52;;;2.83;;
32501;SDS011;18952;52.516;13.460;2022-12-07T15:32:33;10.80;;;2.65;;
32501;SDS011;18952;52.516;13.460;2022-12-07T15:35:00;10.32;;;3.22;;
32501;SDS011;18952;52.516;13.460;2022-12-07T15:37:27;11.32;;;3.03;;
32501;SDS011;18952;52.516;13.460;2022-12-07T15:39:54;13.27;;;2.78;;
32501;SDS011;18952;52.516;13.460;2022-12-07T15:42:21;11.55;;;2.97;;
32501;SDS011;18952;52.516;13.460;2022-12-07T15:44:47;12.68;;;3.53;;
32501;SDS011;18952;52.516;13.460;2022-12-07T15:47:14;10.38;;;3.13;;
32501;SDS011;18952;52.516;13.460;2022-12-07T15:49:41;15.73;;;3.15;;
32501;SDS011;18952;52.516;13.460;2022-12-07T15:52:07;13.38;;;3.38;;
32501;SDS011;18952;52.516;13.460;2022-12-07T15:54:34;16.33;;;3.30;;
32501;SDS011;18952;52.516;13.460;2022-12-07T15:57:01;17.30;;;3.78;;
32501;SDS011;18952;52.516;13.460;2022-12-07T15:59:28;15.82;;;3.28;;
32501;SDS011;18952;52.516;13.460;2022-12-07T16:01:55;19.80;;;3.55;;
32501;SDS011;18952;52.516;13.460;2022-12-07T16:04:22;11.95;;;3.13;;
32501;SDS011;18952;52.516;13.460;2022-12-07T16:06:49;11.88;;;3.20;;
32501;SDS011;18952;52.516;13.460;2022-12-07T16:09:16;14.80;;;3.60;;
32501;SDS011;18952;52.516;13.460;2022-12-07T16:11:43;12.98;;;2.88;;
32501;SDS011;18952;52.516;13.460;2022-12-07T16:14:09;12.00;;;3.53;;
32501;SDS011;18952;52.516;13.460;2022-12-07T16:16:36;12.30;;;2.95;;
32501;SDS011;18952;52.516;13.460;2022-12-07T16:19:03;16.58;;;3.42;;
32501;SDS011;18952;52.516;13.460;2022-12-07T16:21:30;8.60;;;2.80;;
32501;SDS011;18952;52.516;13.460;2022-12-07T16:23:57;14.25;;;3.30;;
32501;SDS011;18952;52.516;13.460;2022-12-07T16:26:24;12.38;;;3.20;;
32501;SDS011;18952;52.516;13.460;2022-12-07T16:28:51;16.67;;;3.40;;
32501;SDS011;18952;52.516;13.460;2022-12-07T16:31:20;12.70;;;3.20;;
32501;SDS011;18952;52.516;13.460;2022-12-07T16:33:49;11.98;;;3.00;;
32501;SDS011;18952;52.516;13.460;2022-12-07T16:36:18;10.73;;;2.85;;
32501;SDS011;18952;52.516;13.460;2022-12-07T16:39:05;10.38;;;3.40;;
32501;SDS011;18952;52.516;13.460;2022-12-07T16:41:32;10.57;;;3.35;;
32501;SDS011;18952;52.516;13.460;2022-12-07T16:44:02;11.07;;;3.60;;
32501;SDS011;18952;52.516;13.460;2022-12-07T16:46:33;17.33;;;4.07;;
32501;SDS011;18952;52.516;13.460;2022-12-07T16:49:02;10.55;;;3.10;;
32501;SDS011;18952;52.516;13.460;2022-12-07T16:51:29;15.13;;;3.60;;
32501;SDS011;18952;52.516;13.460;2022-12-07T16:53:57;13.82;;;3.28;;
32501;SDS011;18952;52.516;13.460;2022-12-07T16:56:23;16.17;;;4.05;;
32501;SDS011;18952;52.516;13.460;2022-12-07T16:58:50;15.02;;;3.65;;